Columbus Metropolitan Airport


Codes: KCSG/CSG
Name: Columbus Metropolitan Airport
City: Columbus
Country: United States
Elevation: 397 ft.
Wikipedia:

Photos at Columbus Metropolitan Airport


   Photos courtesy of SpottingLog. You can add your own sightings and photos by signing up for a free trial today.



No photos found.

Weather at Columbus Metropolitan Airport


Time (UTC)DescriptionTempratureWindCloud coverageVisibilityPressureHumidity
21-Feb-2024 03:00Clear Sky13°C2 mph, N0%10000m1025hPa33%
21-Feb-2024 06:00Clear Sky10°C2 mph, N1%10000m1025hPa47%
21-Feb-2024 09:00Clear Sky7°C2 mph, NE2%10000m1026hPa62%
21-Feb-2024 12:00Clear Sky6°C4 mph, E1%10000m1027hPa63%
21-Feb-2024 15:00Clear Sky12°C4 mph, SE2%10000m1028hPa47%
21-Feb-2024 18:00Clear Sky17°C4 mph, S6%10000m1026hPa36%
21-Feb-2024 21:00Scattered Clouds18°C4 mph, S44%10000m1023hPa37%
22-Feb-2024 00:00Broken Clouds13°C4 mph, S71%10000m1023hPa55%
22-Feb-2024 03:00Overcast Clouds11°C4 mph, S100%10000m1022hPa63%
22-Feb-2024 06:00Overcast Clouds10°C4 mph, S100%10000m1021hPa67%
22-Feb-2024 09:00Broken Clouds8°C4 mph, S64%10000m1021hPa74%
22-Feb-2024 12:00Scattered Clouds7°C4 mph, S33%10000m1020hPa80%
22-Feb-2024 15:00Broken Clouds13°C9 mph, S66%10000m1019hPa59%
22-Feb-2024 18:00Broken Clouds18°C13 mph, SW83%10000m1015hPa42%
22-Feb-2024 21:00Overcast Clouds20°C11 mph, SW100%10000m1011hPa51%
23-Feb-2024 00:00Overcast Clouds17°C13 mph, SW92%10000m1010hPa68%
23-Feb-2024 03:00Overcast Clouds16°C11 mph, SW100%10000m1009hPa81%
23-Feb-2024 06:00Light Rain16°C11 mph, SW100%10000m1007hPa86%
23-Feb-2024 09:00Light Rain15°C9 mph, SW100%10000m1005hPa92%
23-Feb-2024 12:00Light Rain15°C9 mph, W100%10000m1005hPa91%
23-Feb-2024 15:00Light Rain15°C7 mph, W100%10000m1007hPa89%
23-Feb-2024 18:00Broken Clouds19°C13 mph, NW68%10000m1007hPa49%
23-Feb-2024 21:00Clear Sky20°C13 mph, NW0%10000m1007hPa35%
24-Feb-2024 00:00Clear Sky14°C7 mph, NW0%10000m1009hPa55%
24-Feb-2024 03:00Clear Sky11°C7 mph, NW3%10000m1012hPa68%
24-Feb-2024 06:00Clear Sky10°C7 mph, NW2%10000m1013hPa70%
24-Feb-2024 09:00Clear Sky8°C4 mph, W0%10000m1014hPa77%
24-Feb-2024 12:00Clear Sky7°C4 mph, NW0%10000m1015hPa80%
24-Feb-2024 15:00Clear Sky13°C7 mph, W0%10000m1016hPa51%
24-Feb-2024 18:00Clear Sky18°C13 mph, W2%10000m1015hPa35%
24-Feb-2024 21:00Broken Clouds19°C13 mph, NW70%10000m1014hPa34%
25-Feb-2024 00:00Scattered Clouds14°C9 mph, NW38%10000m1018hPa49%
25-Feb-2024 03:00Clear Sky10°C7 mph, N0%10000m1021hPa62%
25-Feb-2024 06:00Clear Sky7°C4 mph, N0%10000m1022hPa71%
25-Feb-2024 09:00Clear Sky6°C4 mph, N0%10000m1022hPa75%
25-Feb-2024 12:00Clear Sky5°C2 mph, NE0%10000m1023hPa75%
25-Feb-2024 15:00Clear Sky11°C2 mph, SE7%10000m1024hPa50%
25-Feb-2024 18:00Scattered Clouds16°C4 mph, SW33%10000m1022hPa37%
25-Feb-2024 21:00Overcast Clouds18°C4 mph, S99%10000m1020hPa35%
26-Feb-2024 00:00Overcast Clouds14°C4 mph, SE93%10000m1021hPa49%